CWLI

Liverpool Bay Airport

Northwest Territories, Canada
METAR CWLI 200600Z AUTO 24005KT ////SM //// OVC002 M25/M27 A3010
Observed Flight Rules
Feb-20 @ 06:00 UTC (an hour ago)
Wind Clouds
240° at 5 knots
  • Overcast at 200' AGL
Temperatures Readings
Current -25°C / -13°F
Dewpoint -27°C / -17°F
Humidity 83%
Altimeter 30.1" Hg
Pressure 1019 hPa
Elevation 102
METAR CWLI 200600Z AUTO 24005KT ////SM //// OVC002 M25/M27 A3010
Observed Flight Rules
Feb-20 @ 06:00 UTC
(an hour ago)
Wind
240° at 5 knots
Clouds
  • Overcast at 200' AGL
Temperature Dewpoint
-25°C / -13°F -27°C / -17°F
Humidity Altimeter Pressure
83% 30.1" Hg 1019 hPa